createdAt,value
2018-06-08T00:00:49.348Z,21.87
2018-06-08T00:01:49.348Z,21.87
2018-06-08T00:02:49.285Z,21.94
2018-06-08T00:03:49.298Z,21.87
2018-06-08T00:04:49.282Z,21.94
2018-06-08T00:05:49.322Z,21.94
2018-06-08T00:06:49.707Z,21.94
2018-06-08T00:07:49.293Z,21.94
2018-06-08T00:08:49.357Z,21.87
2018-06-08T00:09:49.787Z,21.94
2018-06-08T00:10:49.623Z,21.87
2018-06-08T00:11:49.272Z,21.87
2018-06-08T00:12:49.305Z,21.94
2018-06-08T00:13:49.288Z,21.87
2018-06-08T00:14:49.342Z,21.87
2018-06-08T00:15:49.367Z,21.87
2018-06-08T00:16:49.254Z,21.87
2018-06-08T00:17:49.355Z,21.81
2018-06-08T00:18:49.750Z,21.87
2018-06-08T00:19:49.310Z,21.81
2018-06-08T00:20:49.270Z,21.87
2018-06-08T00:21:49.333Z,21.81
2018-06-08T00:22:49.263Z,21.81
2018-06-08T00:23:49.315Z,21.81
2018-06-08T00:24:49.259Z,21.81
2018-06-08T00:25:49.263Z,21.81
2018-06-08T00:26:49.305Z,21.81
2018-06-08T00:27:49.262Z,21.81
2018-06-08T00:28:49.258Z,21.87
2018-06-08T00:29:49.254Z,21.81
2018-06-08T00:30:49.279Z,21.81
2018-06-08T00:31:49.264Z,21.87
2018-06-08T00:32:49.261Z,21.81
2018-06-08T00:33:49.627Z,21.81
2018-06-08T00:34:49.261Z,21.81
2018-06-08T00:35:49.250Z,21.75
2018-06-08T00:36:49.702Z,21.81
2018-06-08T00:37:49.268Z,21.75
2018-06-08T00:38:49.263Z,21.81
2018-06-08T00:39:49.264Z,21.81
2018-06-08T00:40:49.253Z,21.75
2018-06-08T00:41:49.282Z,21.75
2018-06-08T00:42:49.245Z,21.75
2018-06-08T00:43:49.265Z,21.75
2018-06-08T00:44:49.316Z,21.75
2018-06-08T00:45:49.289Z,21.69
2018-06-08T00:46:49.280Z,21.69
2018-06-08T00:47:49.401Z,21.62
2018-06-08T00:48:49.262Z,21.56
2018-06-08T00:49:50.069Z,21.56
2018-06-08T00:50:50.175Z,21.56
2018-06-08T00:51:50.121Z,21.56
2018-06-08T00:52:50.004Z,21.5
2018-06-08T00:53:50.057Z,21.5
2018-06-08T00:54:50.066Z,21.5
2018-06-08T00:55:50.394Z,21.5
2018-06-08T00:56:50.132Z,21.5
2018-06-08T00:57:49.985Z,21.5
2018-06-08T00:58:50.074Z,21.5
2018-06-08T00:59:50.076Z,21.5
2018-06-08T01:00:50.104Z,21.44
2018-06-08T01:01:50.052Z,21.44
2018-06-08T01:02:50.072Z,21.44
2018-06-08T01:03:50.054Z,21.44
2018-06-08T01:04:50.134Z,21.44
2018-06-08T01:05:50.024Z,21.44
2018-06-08T01:06:49.973Z,21.44
2018-06-08T01:07:50.177Z,21.44
2018-06-08T01:08:50.185Z,21.44
2018-06-08T01:09:50.077Z,21.44
2018-06-08T01:10:50.018Z,21.44
2018-06-08T01:11:50.067Z,21.44
2018-06-08T01:12:50.064Z,21.44
2018-06-08T01:13:50.024Z,21.37
2018-06-08T01:14:50.092Z,21.44
2018-06-08T01:15:50.174Z,21.37
2018-06-08T01:16:50.144Z,21.44
2018-06-08T01:17:50.054Z,21.37
2018-06-08T01:18:50.009Z,21.37
2018-06-08T01:19:50.226Z,21.44
2018-06-08T01:20:49.958Z,21.37
2018-06-08T01:21:50.049Z,21.31
2018-06-08T01:22:50.164Z,21.31
2018-06-08T01:23:50.051Z,21.31
2018-06-08T01:24:50.044Z,21.31
2018-06-08T01:25:50.166Z,21.31
2018-06-08T01:26:50.048Z,21.31
2018-06-08T01:27:50.068Z,21.31
2018-06-08T01:28:50.059Z,21.31
2018-06-08T01:29:50.081Z,21.25
2018-06-08T01:30:50.102Z,21.31
2018-06-08T01:31:50.036Z,21.25
2018-06-08T01:32:50.056Z,21.25
2018-06-08T01:33:50.009Z,21.25
2018-06-08T01:34:49.981Z,21.25
2018-06-08T01:35:50.195Z,21.25
2018-06-08T01:36:50.120Z,21.25
2018-06-08T01:37:50.006Z,21.25
2018-06-08T01:38:50.022Z,21.25
2018-06-08T01:39:49.978Z,21.19
2018-06-08T01:40:49.970Z,21.19
2018-06-08T01:41:49.983Z,21.19
2018-06-08T01:42:50.049Z,21.19
2018-06-08T01:43:50.055Z,21.19
2018-06-08T01:44:49.985Z,21.19
2018-06-08T01:45:49.897Z,21.12
2018-06-08T01:46:50.024Z,21.19
2018-06-08T01:47:50.041Z,21.19
2018-06-08T01:48:50.024Z,21.19
2018-06-08T01:49:49.674Z,21.25
2018-06-08T01:50:49.904Z,21.19
2018-06-08T01:51:49.876Z,21.19
2018-06-08T01:52:49.915Z,21.25
2018-06-08T01:53:49.986Z,21.25
2018-06-08T01:54:49.931Z,21.25
2018-06-08T01:55:49.873Z,21.25
2018-06-08T01:56:49.853Z,21.19
2018-06-08T01:57:49.874Z,21.19
2018-06-08T01:58:50.060Z,21.19
2018-06-08T01:59:49.881Z,21.19
2018-06-08T02:00:50.221Z,21.19
2018-06-08T02:01:49.927Z,21.19
2018-06-08T02:02:49.956Z,21.19
2018-06-08T02:03:50.276Z,21.19
2018-06-08T02:04:49.909Z,21.19
2018-06-08T02:05:49.952Z,21.19
2018-06-08T02:06:50.322Z,21.19
2018-06-08T02:07:49.900Z,21.19
2018-06-08T02:08:49.888Z,21.25
2018-06-08T02:09:49.890Z,21.19
2018-06-08T02:10:50.314Z,21.19
2018-06-08T02:11:49.915Z,21.19
2018-06-08T02:12:50.169Z,21.19
2018-06-08T02:13:49.889Z,21.19
2018-06-08T02:14:49.967Z,21.19
2018-06-08T02:15:49.875Z,21.19
2018-06-08T02:16:49.675Z,21.19
2018-06-08T02:17:49.862Z,21.12
2018-06-08T02:18:49.881Z,21.12
2018-06-08T02:19:49.943Z,21.12
2018-06-08T02:20:49.976Z,21.12
2018-06-08T02:21:49.906Z,21.12
2018-06-08T02:22:50.230Z,21.12
2018-06-08T02:23:49.871Z,21.06
2018-06-08T02:24:49.950Z,21.06
2018-06-08T02:25:49.992Z,21.12
2018-06-08T02:26:49.867Z,21.12
2018-06-08T02:27:49.890Z,21.06
2018-06-08T02:28:50.195Z,21.06
2018-06-08T02:29:49.903Z,21.06
2018-06-08T02:30:49.939Z,21
2018-06-08T02:31:49.881Z,21
2018-06-08T02:32:49.926Z,21
2018-06-08T02:33:50.052Z,20.94
2018-06-08T02:34:49.900Z,20.94
2018-06-08T02:35:49.958Z,21
2018-06-08T02:36:49.857Z,20.94
2018-06-08T02:37:50.214Z,21
2018-06-08T02:38:49.896Z,20.94
2018-06-08T02:39:49.901Z,21
2018-06-08T02:40:50.246Z,21
2018-06-08T02:41:49.968Z,21
2018-06-08T02:42:49.931Z,21
2018-06-08T02:43:50.047Z,21
2018-06-08T02:44:49.539Z,20.94
2018-06-08T02:45:49.925Z,20.94
2018-06-08T02:46:49.940Z,20.88
2018-06-08T02:47:49.957Z,20.88
2018-06-08T02:48:50.834Z,20.88
2018-06-08T02:49:49.232Z,20.88
2018-06-08T02:50:49.254Z,20.88
2018-06-08T02:51:49.257Z,20.88
2018-06-08T02:52:49.246Z,20.88
2018-06-08T02:53:49.234Z,20.88
2018-06-08T02:54:49.261Z,20.88
2018-06-08T02:55:49.210Z,20.88
2018-06-08T02:56:49.256Z,20.88
2018-06-08T02:57:49.232Z,20.88
2018-06-08T02:58:49.267Z,20.88
2018-06-08T02:59:49.251Z,20.81
2018-06-08T03:00:49.223Z,20.81
2018-06-08T03:01:49.216Z,20.81
2018-06-08T03:02:49.270Z,20.81
2018-06-08T03:03:49.230Z,20.75
2018-06-08T03:04:49.235Z,20.81
2018-06-08T03:05:49.261Z,20.75
2018-06-08T03:06:49.273Z,20.75
2018-06-08T03:07:49.227Z,20.69
2018-06-08T03:08:49.294Z,20.69
2018-06-08T03:09:49.273Z,20.69
2018-06-08T03:10:49.301Z,20.69
2018-06-08T03:11:49.249Z,20.69
2018-06-08T03:12:49.514Z,20.69
2018-06-08T03:13:49.224Z,20.69
2018-06-08T03:14:49.223Z,20.69
2018-06-08T03:15:49.249Z,20.69
2018-06-08T03:16:49.242Z,20.69
2018-06-08T03:17:49.318Z,20.69
2018-06-08T03:18:49.255Z,20.69
2018-06-08T03:19:49.244Z,20.62
2018-06-08T03:20:49.255Z,20.69
2018-06-08T03:21:49.321Z,20.69
2018-06-08T03:22:49.241Z,20.69
2018-06-08T03:23:49.267Z,20.69
2018-06-08T03:24:49.393Z,20.62
2018-06-08T03:25:49.225Z,20.62
2018-06-08T03:26:49.239Z,20.62
2018-06-08T03:27:49.284Z,20.62
2018-06-08T03:28:49.368Z,20.62
2018-06-08T03:29:49.222Z,20.69
2018-06-08T03:30:49.260Z,20.69
2018-06-08T03:31:49.223Z,20.62
2018-06-08T03:32:49.179Z,20.62
2018-06-08T03:33:49.224Z,20.62
2018-06-08T03:34:49.281Z,20.56
2018-06-08T03:35:49.211Z,20.56
2018-06-08T03:36:49.202Z,20.56
2018-06-08T03:37:49.229Z,20.56
2018-06-08T03:38:49.214Z,20.5
2018-06-08T03:39:49.339Z,20.5
2018-06-08T03:40:49.197Z,20.5
2018-06-08T03:41:49.200Z,20.5
2018-06-08T03:42:49.302Z,20.44
2018-06-08T03:43:49.350Z,20.44
2018-06-08T03:44:49.232Z,20.44
2018-06-08T03:45:49.243Z,20.37
2018-06-08T03:46:49.199Z,20.44
2018-06-08T03:47:49.395Z,20.37
2018-06-08T03:48:49.204Z,20.37
2018-06-08T03:49:49.247Z,20.37
2018-06-08T03:50:49.222Z,20.37
2018-06-08T03:51:49.242Z,20.37
2018-06-08T03:52:49.320Z,20.37
2018-06-08T03:53:49.177Z,20.37
2018-06-08T03:54:49.337Z,20.31
2018-06-08T03:55:49.252Z,20.31
2018-06-08T03:56:49.351Z,20.25
2018-06-08T03:57:49.189Z,20.25
2018-06-08T03:58:49.188Z,20.25
2018-06-08T03:59:49.245Z,20.25
2018-06-08T04:00:49.207Z,20.19
2018-06-08T04:01:49.204Z,20.19
2018-06-08T04:02:49.183Z,20.19
2018-06-08T04:03:49.281Z,20.19
2018-06-08T04:04:49.177Z,20.12
2018-06-08T04:05:49.204Z,20.12
2018-06-08T04:06:49.200Z,20.12
2018-06-08T04:07:49.205Z,20.12
2018-06-08T04:08:49.183Z,20.12
2018-06-08T04:09:49.222Z,20.06
2018-06-08T04:10:49.196Z,20.12
2018-06-08T04:11:49.187Z,20.12
2018-06-08T04:12:49.197Z,20.12
2018-06-08T04:13:49.189Z,20.12
2018-06-08T04:14:49.195Z,20.06
2018-06-08T04:15:49.218Z,20.06
2018-06-08T04:16:49.200Z,20.12
2018-06-08T04:17:49.214Z,20.12
2018-06-08T04:18:49.216Z,20.12
2018-06-08T04:19:49.184Z,20.12
2018-06-08T04:20:49.184Z,20.12
2018-06-08T04:21:49.188Z,20.12
2018-06-08T04:22:49.325Z,20.12
2018-06-08T04:23:49.226Z,20.06
2018-06-08T04:24:49.188Z,20.12
2018-06-08T04:25:50.031Z,20.06
2018-06-08T04:26:49.288Z,20.12
2018-06-08T04:27:49.236Z,20.12
2018-06-08T04:28:49.224Z,20.12
2018-06-08T04:29:49.180Z,20.12
2018-06-08T04:30:49.199Z,20.06
2018-06-08T04:31:49.180Z,20.12
2018-06-08T04:32:49.993Z,20.12
2018-06-08T04:33:49.230Z,20.12
2018-06-08T04:34:49.405Z,20.06
2018-06-08T04:35:49.281Z,20.06
2018-06-08T04:36:49.253Z,20.06
2018-06-08T04:37:49.444Z,20.06
2018-06-08T04:38:49.199Z,20.06
2018-06-08T04:39:49.246Z,20.06
2018-06-08T04:40:49.261Z,20.06
2018-06-08T04:41:49.268Z,20
2018-06-08T04:42:49.202Z,20.06
2018-06-08T04:43:49.200Z,20
2018-06-08T04:44:49.225Z,20
2018-06-08T04:45:49.302Z,20.06
2018-06-08T04:46:49.274Z,20
2018-06-08T04:47:49.410Z,20.06
2018-06-08T04:48:49.212Z,20.06
2018-06-08T04:49:49.181Z,20
2018-06-08T04:50:49.353Z,20
2018-06-08T04:51:52.098Z,20
2018-06-08T04:52:49.212Z,19.94
2018-06-08T04:53:49.185Z,20
2018-06-08T04:54:49.351Z,20
2018-06-08T04:55:49.287Z,20
2018-06-08T04:56:49.273Z,20
2018-06-08T04:57:49.207Z,19.94
2018-06-08T04:58:49.225Z,19.94
2018-06-08T04:59:49.219Z,19.94
2018-06-08T05:00:49.187Z,19.94
2018-06-08T05:01:49.175Z,19.94
2018-06-08T05:02:49.195Z,19.94
2018-06-08T05:03:49.220Z,19.94
2018-06-08T05:04:49.193Z,19.94
2018-06-08T05:05:49.213Z,20
2018-06-08T05:06:49.207Z,20
2018-06-08T05:07:49.179Z,20
2018-06-08T05:08:49.199Z,20
2018-06-08T05:09:49.650Z,20
2018-06-08T05:10:49.176Z,20
2018-06-08T05:11:49.263Z,20
2018-06-08T05:12:49.171Z,20.06
2018-06-08T05:13:49.211Z,20
2018-06-08T05:14:49.184Z,20.06
2018-06-08T05:15:50.269Z,20.06
2018-06-08T05:16:49.169Z,20.12
2018-06-08T05:17:49.156Z,20.12
2018-06-08T05:18:49.155Z,20.12
2018-06-08T05:19:49.240Z,20.19
2018-06-08T05:20:49.181Z,20.19
2018-06-08T05:21:49.183Z,20.19
2018-06-08T05:22:49.228Z,20.25
2018-06-08T05:23:49.196Z,20.25
2018-06-08T05:24:49.200Z,20.25
2018-06-08T05:25:49.201Z,20.25
2018-06-08T05:26:49.192Z,20.19
2018-06-08T05:27:49.177Z,20.25
2018-06-08T05:28:49.201Z,20.25
2018-06-08T05:29:49.206Z,20.19
2018-06-08T05:30:49.147Z,20.25
2018-06-08T05:31:49.535Z,20.31
2018-06-08T05:32:49.274Z,20.31
2018-06-08T05:33:49.177Z,20.31
2018-06-08T05:34:49.281Z,20.25
2018-06-08T05:35:49.200Z,20.31
2018-06-08T05:36:49.241Z,20.25
2018-06-08T05:37:49.222Z,20.31
2018-06-08T05:38:49.172Z,20.25
2018-06-08T05:39:49.296Z,20.25
2018-06-08T05:40:49.192Z,20.31
2018-06-08T05:41:49.228Z,20.31
2018-06-08T05:42:49.219Z,20.31
2018-06-08T05:43:49.263Z,20.37
2018-06-08T05:44:49.166Z,20.37
2018-06-08T05:45:49.183Z,20.37
2018-06-08T05:46:49.170Z,20.37
2018-06-08T05:47:49.207Z,20.37
2018-06-08T05:48:49.255Z,20.37
2018-06-08T05:49:49.198Z,20.37
2018-06-08T05:50:49.186Z,20.37
2018-06-08T05:51:49.173Z,20.44
2018-06-08T05:52:49.198Z,20.44
2018-06-08T05:53:49.205Z,20.44
2018-06-08T05:54:49.243Z,20.44
2018-06-08T05:55:49.196Z,20.44
2018-06-08T05:56:49.194Z,20.5
2018-06-08T05:57:49.197Z,20.44
2018-06-08T05:58:49.232Z,20.5
2018-06-08T05:59:49.235Z,20.5
2018-06-08T06:00:49.176Z,20.5
2018-06-08T06:01:49.192Z,20.56
2018-06-08T06:02:49.190Z,20.56
2018-06-08T06:03:49.203Z,20.5
2018-06-08T06:04:49.166Z,20.56
2018-06-08T06:05:49.184Z,20.56
2018-06-08T06:06:49.197Z,20.56
2018-06-08T06:07:49.171Z,20.62
2018-06-08T06:08:49.442Z,20.62
2018-06-08T06:09:49.226Z,20.62
2018-06-08T06:10:49.380Z,20.62
2018-06-08T06:11:49.230Z,20.62
2018-06-08T06:12:49.335Z,20.69
2018-06-08T06:13:49.233Z,20.69
2018-06-08T06:14:49.295Z,20.69
2018-06-08T06:15:49.176Z,20.69
2018-06-08T06:16:49.230Z,20.56
2018-06-08T06:17:49.195Z,20.62
2018-06-08T06:18:49.165Z,20.62
2018-06-08T06:19:49.196Z,20.62
2018-06-08T06:20:49.574Z,20.69
2018-06-08T06:21:49.196Z,20.69
2018-06-08T06:22:49.207Z,20.69
2018-06-08T06:23:49.181Z,20.69
2018-06-08T06:24:49.255Z,20.75
2018-06-08T06:25:49.176Z,20.69
2018-06-08T06:26:49.195Z,20.69
2018-06-08T06:27:49.177Z,20.56
2018-06-08T06:28:49.150Z,20.56
2018-06-08T06:29:49.158Z,20.62
2018-06-08T06:30:49.280Z,20.62
2018-06-08T06:31:49.175Z,20.62
2018-06-08T06:32:49.151Z,20.69
2018-06-08T06:33:49.155Z,20.69
2018-06-08T06:34:49.159Z,20.75
2018-06-08T06:35:49.158Z,20.75
2018-06-08T06:36:49.185Z,20.81
2018-06-08T06:37:49.162Z,20.81
2018-06-08T06:38:49.145Z,20.81
2018-06-08T06:39:49.177Z,20.88
2018-06-08T06:40:49.149Z,20.88
2018-06-08T06:41:49.156Z,20.94
2018-06-08T06:42:49.142Z,20.94
2018-06-08T06:43:49.184Z,21
2018-06-08T06:44:49.517Z,21
2018-06-08T06:45:49.135Z,21
2018-06-08T06:46:49.180Z,20.94
2018-06-08T06:47:49.326Z,20.94
2018-06-08T06:48:49.144Z,21
2018-06-08T06:49:49.123Z,21
2018-06-08T06:50:49.130Z,21.06
2018-06-08T06:51:49.192Z,21.06
2018-06-08T06:52:50.527Z,21.12
2018-06-08T06:53:49.170Z,21.12
2018-06-08T06:54:49.158Z,21.12
2018-06-08T06:55:49.152Z,21.19
2018-06-08T06:56:49.204Z,21.19
2018-06-08T06:57:49.155Z,21.25
2018-06-08T06:58:49.429Z,21.25
2018-06-08T06:59:49.190Z,21.25
2018-06-08T07:00:49.139Z,21.25
2018-06-08T07:01:49.149Z,21.25
2018-06-08T07:02:49.148Z,21.25
2018-06-08T07:03:49.122Z,21.31
2018-06-08T07:04:49.179Z,21.31
2018-06-08T07:05:49.203Z,21.31
2018-06-08T07:06:49.171Z,21.31
2018-06-08T07:07:49.188Z,21.25
2018-06-08T07:08:49.148Z,21.25
2018-06-08T07:09:49.145Z,21.19
2018-06-08T07:10:49.153Z,21.19
2018-06-08T07:11:49.236Z,21.19
2018-06-08T07:12:49.585Z,21.12
2018-06-08T07:13:49.174Z,21.19
2018-06-08T07:14:49.191Z,21.19
2018-06-08T07:15:49.164Z,21.19
2018-06-08T07:16:49.360Z,21.25
2018-06-08T07:17:49.435Z,21.25
2018-06-08T07:18:50.012Z,21.25
2018-06-08T07:19:49.160Z,21.31
2018-06-08T07:20:49.149Z,21.31
2018-06-08T07:21:49.371Z,21.31
2018-06-08T07:22:49.148Z,21.37
2018-06-08T07:23:49.152Z,21.44
2018-06-08T07:24:49.460Z,21.37
2018-06-08T07:25:49.154Z,21.44
2018-06-08T07:26:49.160Z,21.44
2018-06-08T07:27:49.229Z,21.5
2018-06-08T07:28:49.188Z,21.44
2018-06-08T07:29:49.157Z,21.44
2018-06-08T07:30:49.200Z,21.5
2018-06-08T07:31:50.949Z,21.5
2018-06-08T07:32:49.173Z,21.56
2018-06-08T07:33:49.144Z,21.56
2018-06-08T07:34:49.150Z,21.56
2018-06-08T07:35:49.191Z,21.62
2018-06-08T07:36:49.166Z,21.62
2018-06-08T07:37:49.145Z,21.62
2018-06-08T07:38:49.160Z,21.62
2018-06-08T07:39:49.349Z,21.62
2018-06-08T07:40:49.155Z,21.62
2018-06-08T07:41:49.153Z,21.62
2018-06-08T07:42:49.137Z,21.62
2018-06-08T07:43:49.177Z,21.69
2018-06-08T07:44:49.150Z,21.69
2018-06-08T07:45:49.165Z,21.69
2018-06-08T07:46:49.813Z,21.75
2018-06-08T07:47:49.129Z,21.75
2018-06-08T07:48:49.164Z,21.75
2018-06-08T07:49:49.145Z,21.81
2018-06-08T07:50:49.137Z,21.81
2018-06-08T07:51:49.175Z,21.81
2018-06-08T07:52:49.149Z,21.81
2018-06-08T07:53:49.582Z,21.81
2018-06-08T07:54:49.169Z,21.81
2018-06-08T07:55:49.318Z,21.81
2018-06-08T07:56:49.146Z,21.81
2018-06-08T07:57:49.154Z,21.81
2018-06-08T07:58:49.124Z,21.81
2018-06-08T07:59:49.154Z,21.81
2018-06-08T08:00:49.172Z,21.81
2018-06-08T08:01:49.168Z,21.81
2018-06-08T08:02:49.137Z,21.87
2018-06-08T08:03:49.209Z,21.87
2018-06-08T08:04:49.135Z,21.87
2018-06-08T08:05:49.138Z,21.87
2018-06-08T08:06:49.163Z,21.94
2018-06-08T08:07:49.127Z,21.94
2018-06-08T08:08:49.153Z,22
2018-06-08T08:09:49.151Z,22
2018-06-08T08:10:49.105Z,22.06
2018-06-08T08:11:49.164Z,22.13
2018-06-08T08:12:49.169Z,22.13
2018-06-08T08:13:49.130Z,22.19
2018-06-08T08:14:49.145Z,22.25
2018-06-08T08:15:49.127Z,22.25
2018-06-08T08:16:49.515Z,22.37
2018-06-08T08:17:49.151Z,22.37
2018-06-08T08:18:49.237Z,22.44
2018-06-08T08:19:49.283Z,22.5
2018-06-08T08:20:49.133Z,22.5
2018-06-08T08:21:49.113Z,22.5
2018-06-08T08:22:49.143Z,22.56
2018-06-08T08:23:49.159Z,22.5
2018-06-08T08:24:49.122Z,22.5
2018-06-08T08:25:49.859Z,22.44
2018-06-08T08:26:49.220Z,22.44
2018-06-08T08:27:49.156Z,22.44
2018-06-08T08:28:49.177Z,22.5
2018-06-08T08:29:49.097Z,22.5
2018-06-08T08:30:49.192Z,22.5
2018-06-08T08:31:49.105Z,22.5
2018-06-08T08:32:49.191Z,22.5
2018-06-08T08:33:49.120Z,22.5
2018-06-08T08:34:49.136Z,22.44
2018-06-08T08:35:49.236Z,22.44
2018-06-08T08:36:49.164Z,22.37
2018-06-08T08:37:49.129Z,22.31
2018-06-08T08:38:49.219Z,22.25
2018-06-08T08:39:49.210Z,22.25
2018-06-08T08:40:49.288Z,22.19
2018-06-08T08:41:49.261Z,22.19
2018-06-08T08:42:49.319Z,22.19
2018-06-08T08:43:49.107Z,22.19
2018-06-08T08:44:49.098Z,22.19
2018-06-08T08:45:49.122Z,22.19
2018-06-08T08:46:49.122Z,22.19
2018-06-08T08:47:49.104Z,22.19
2018-06-08T08:48:49.157Z,22.25
2018-06-08T08:49:49.098Z,22.25
2018-06-08T08:50:49.154Z,22.25
2018-06-08T08:51:49.120Z,22.25
2018-06-08T08:52:49.103Z,22.19
2018-06-08T08:53:49.136Z,22.19
2018-06-08T08:54:49.109Z,22.25
2018-06-08T08:55:49.104Z,22.25
2018-06-08T08:56:49.607Z,22.25
2018-06-08T08:57:49.143Z,22.25
2018-06-08T08:58:49.092Z,22.25
2018-06-08T08:59:49.137Z,22.31
2018-06-08T09:00:49.095Z,22.37
2018-06-08T09:01:49.135Z,22.37
2018-06-08T09:02:49.147Z,22.44
2018-06-08T09:03:49.531Z,22.5
2018-06-08T09:04:49.096Z,22.56
2018-06-08T09:05:49.144Z,22.62
2018-06-08T09:06:49.133Z,22.62
2018-06-08T09:07:49.093Z,22.62
2018-06-08T09:08:49.105Z,22.75
2018-06-08T09:09:49.160Z,22.75
2018-06-08T09:10:49.113Z,22.81
2018-06-08T09:11:49.112Z,22.81
2018-06-08T09:12:49.118Z,22.87
2018-06-08T09:13:49.104Z,22.87
2018-06-08T09:14:49.150Z,23
2018-06-08T09:15:49.208Z,23
2018-06-08T09:16:49.112Z,23.06
2018-06-08T09:17:49.119Z,23.06
2018-06-08T09:18:49.128Z,23
2018-06-08T09:19:49.183Z,23.06
2018-06-08T09:20:49.321Z,23
2018-06-08T09:21:49.329Z,23.06
2018-06-08T09:22:49.281Z,23.06
2018-06-08T09:23:49.186Z,23
2018-06-08T09:24:49.202Z,23
2018-06-08T09:25:49.242Z,23.06
2018-06-08T09:26:49.278Z,23.06
2018-06-08T09:27:49.151Z,23.19
2018-06-08T09:28:49.087Z,23.31
2018-06-08T09:29:49.151Z,23.31
2018-06-08T09:30:49.092Z,23.31
2018-06-08T09:31:49.108Z,23.38
2018-06-08T09:32:49.087Z,23.38
2018-06-08T09:33:49.287Z,23.38
2018-06-08T09:34:49.256Z,23.31
2018-06-08T09:35:49.127Z,23.31
2018-06-08T09:36:49.211Z,23.31
2018-06-08T09:37:49.107Z,23.38
2018-06-08T09:38:49.106Z,23.25
2018-06-08T09:39:49.116Z,23.31
2018-06-08T09:40:49.119Z,23.31
2018-06-08T09:41:49.134Z,23.31
2018-06-08T09:42:49.082Z,23.31
2018-06-08T09:43:49.190Z,23.31
2018-06-08T09:44:49.138Z,23.38
2018-06-08T09:45:49.119Z,23.38
2018-06-08T09:46:49.117Z,23.44
2018-06-08T09:47:49.192Z,23.44
2018-06-08T09:48:49.166Z,23.44
2018-06-08T09:49:49.126Z,23.5
2018-06-08T09:50:49.155Z,23.5
2018-06-08T09:51:49.106Z,23.56
2018-06-08T09:52:49.077Z,23.56
2018-06-08T09:53:49.112Z,23.56
2018-06-08T09:54:49.411Z,23.56
2018-06-08T09:55:49.128Z,23.56
2018-06-08T09:56:49.093Z,23.62
2018-06-08T09:57:49.098Z,23.69
2018-06-08T09:58:49.120Z,23.69
2018-06-08T09:59:49.094Z,23.75
2018-06-08T10:00:49.130Z,23.81
2018-06-08T10:01:49.161Z,23.81
2018-06-08T10:02:49.104Z,23.81
2018-06-08T10:03:49.148Z,23.81
2018-06-08T10:04:49.113Z,23.81
2018-06-08T10:05:49.103Z,23.87
2018-06-08T10:06:49.111Z,23.87
2018-06-08T10:07:49.100Z,23.87
2018-06-08T10:08:49.155Z,23.87
2018-06-08T10:09:49.121Z,23.87
2018-06-08T10:10:49.163Z,23.81
2018-06-08T10:11:49.207Z,23.81
2018-06-08T10:12:49.253Z,23.81
2018-06-08T10:13:49.315Z,23.75
2018-06-08T10:14:49.088Z,23.69
2018-06-08T10:15:49.099Z,23.69
2018-06-08T10:16:49.138Z,23.69
2018-06-08T10:17:49.125Z,23.75
2018-06-08T10:18:49.092Z,23.75
2018-06-08T10:19:49.131Z,23.81
2018-06-08T10:20:49.074Z,23.87
2018-06-08T10:21:49.148Z,23.87
2018-06-08T10:22:49.098Z,23.87
2018-06-08T10:23:49.076Z,23.94
2018-06-08T10:24:49.084Z,23.94
2018-06-08T10:25:49.089Z,24
2018-06-08T10:26:49.103Z,24.06
2018-06-08T10:27:49.110Z,24.06
2018-06-08T10:28:49.106Z,24.06
2018-06-08T10:29:49.137Z,24.06
2018-06-08T10:30:49.380Z,24.06
2018-06-08T10:31:49.227Z,24.12
2018-06-08T10:32:49.119Z,24.12
2018-06-08T10:33:49.189Z,24.12
2018-06-08T10:34:49.161Z,24.19
2018-06-08T10:35:49.082Z,24.19
2018-06-08T10:36:49.113Z,24.19
2018-06-08T10:37:49.086Z,24.19
2018-06-08T10:38:49.280Z,24.19
2018-06-08T10:39:49.131Z,24.12
2018-06-08T10:40:49.278Z,24.12
2018-06-08T10:41:49.122Z,24.12
2018-06-08T10:42:49.146Z,24.12
2018-06-08T10:43:49.112Z,24.19
2018-06-08T10:44:49.126Z,24.19
2018-06-08T10:45:49.119Z,24.25
2018-06-08T10:46:49.095Z,24.19
2018-06-08T10:47:49.115Z,24.19
2018-06-08T10:48:49.249Z,24.19
2018-06-08T10:49:49.138Z,24.19
2018-06-08T10:50:49.141Z,24.19
2018-06-08T10:51:49.164Z,24.31
2018-06-08T10:52:49.188Z,24.37
2018-06-08T10:53:49.162Z,24.44
2018-06-08T10:54:49.086Z,24.5
2018-06-08T10:55:49.178Z,24.56
2018-06-08T10:56:49.161Z,24.63
2018-06-08T10:57:49.172Z,24.69
2018-06-08T10:58:49.188Z,24.75
2018-06-08T10:59:58.364Z,24.87
2018-06-08T11:00:49.121Z,24.94
2018-06-08T11:01:49.122Z,25
2018-06-08T11:02:49.113Z,25
2018-06-08T11:03:49.167Z,25
2018-06-08T11:04:49.127Z,25
2018-06-08T11:05:49.138Z,25.12
2018-06-08T11:06:49.078Z,25.06
2018-06-08T11:07:49.117Z,25.12
2018-06-08T11:08:49.084Z,25.19
2018-06-08T11:09:49.120Z,25.25
2018-06-08T11:10:49.171Z,25.25
2018-06-08T11:11:49.111Z,25.25
2018-06-08T11:12:49.157Z,25.31
2018-06-08T11:13:49.124Z,25.31
2018-06-08T11:14:49.076Z,25.37
2018-06-08T11:15:49.106Z,25.37
2018-06-08T11:16:49.049Z,25.5
2018-06-08T11:17:49.053Z,25.5
2018-06-08T11:18:49.140Z,25.5
2018-06-08T11:19:49.501Z,25.56
2018-06-08T11:20:49.149Z,25.5
2018-06-08T11:21:49.083Z,25.44
2018-06-08T11:22:49.104Z,25.37
2018-06-08T11:23:49.106Z,25.31
2018-06-08T11:24:49.121Z,25.37
2018-06-08T11:25:49.118Z,25.37
2018-06-08T11:26:49.123Z,25.44
2018-06-08T11:27:49.150Z,25.5
2018-06-08T11:28:49.170Z,25.62
2018-06-08T11:29:49.102Z,25.69
2018-06-08T11:30:49.163Z,25.75
2018-06-08T11:31:49.103Z,25.69
2018-06-08T11:32:49.122Z,25.69
2018-06-08T11:33:49.181Z,25.69
2018-06-08T11:34:49.059Z,25.75
2018-06-08T11:35:49.130Z,25.75
2018-06-08T11:36:49.117Z,25.75
2018-06-08T11:37:49.121Z,25.69
2018-06-08T11:38:49.111Z,25.69
2018-06-08T11:39:49.097Z,25.69
2018-06-08T11:40:49.078Z,25.75
2018-06-08T11:41:49.070Z,25.81
2018-06-08T11:42:49.117Z,26
2018-06-08T11:43:49.099Z,25.94
2018-06-08T11:44:49.050Z,26
2018-06-08T11:45:49.504Z,26.06
2018-06-08T11:46:49.186Z,26.06
2018-06-08T11:47:49.124Z,26.12
2018-06-08T11:48:49.062Z,26.19
2018-06-08T11:49:49.079Z,26.25
2018-06-08T11:50:49.120Z,26.25
2018-06-08T11:51:49.082Z,26.31
2018-06-08T11:52:49.153Z,26.37
2018-06-08T11:53:49.089Z,26.37
2018-06-08T11:54:49.111Z,26.5
2018-06-08T11:55:49.084Z,26.56
2018-06-08T11:56:49.068Z,26.62
2018-06-08T11:57:49.102Z,26.62
2018-06-08T11:58:49.135Z,26.62
2018-06-08T11:59:49.066Z,26.62
2018-06-08T12:00:49.128Z,26.62
2018-06-08T12:01:49.669Z,26.69
2018-06-08T12:02:49.091Z,26.69
2018-06-08T12:03:49.119Z,26.69
2018-06-08T12:04:49.076Z,26.62
2018-06-08T12:05:49.081Z,26.69
2018-06-08T12:06:49.205Z,26.62
2018-06-08T12:07:49.436Z,26.56
2018-06-08T12:08:49.128Z,26.56
2018-06-08T12:09:49.065Z,26.5
2018-06-08T12:10:49.123Z,26.5
2018-06-08T12:11:49.067Z,26.44
2018-06-08T12:12:49.117Z,26.5
2018-06-08T12:13:49.090Z,26.5
2018-06-08T12:14:49.111Z,26.56
2018-06-08T12:15:49.124Z,26.62
2018-06-08T12:16:49.232Z,26.62
2018-06-08T12:17:49.161Z,26.69
2018-06-08T12:18:49.237Z,26.69
2018-06-08T12:19:49.091Z,26.62
2018-06-08T12:20:49.194Z,26.69
2018-06-08T12:21:49.277Z,26.69
2018-06-08T12:22:49.179Z,26.69
2018-06-08T12:23:49.085Z,26.75
2018-06-08T12:24:49.051Z,26.69
2018-06-08T12:25:49.092Z,26.81
2018-06-08T12:26:49.087Z,26.81
2018-06-08T12:27:49.052Z,26.94
2018-06-08T12:28:49.066Z,26.87
2018-06-08T12:29:49.124Z,26.87
2018-06-08T12:30:49.798Z,26.87
2018-06-08T12:31:49.132Z,26.87
2018-06-08T12:32:49.051Z,26.94
2018-06-08T12:33:49.287Z,26.94
2018-06-08T12:34:49.058Z,27
2018-06-08T12:35:49.096Z,27.06
2018-06-08T12:36:49.064Z,27.06
2018-06-08T12:37:49.102Z,27
2018-06-08T12:38:49.079Z,27.13
2018-06-08T12:39:49.061Z,27.13
2018-06-08T12:40:49.176Z,27.19
2018-06-08T12:41:49.088Z,27.19
2018-06-08T12:42:49.109Z,27.25
2018-06-08T12:43:49.132Z,27.31
2018-06-08T12:44:49.049Z,27.31
2018-06-08T12:45:49.066Z,27.31
2018-06-08T12:46:49.065Z,27.37
2018-06-08T12:47:49.061Z,27.44
2018-06-08T12:48:49.043Z,27.5
2018-06-08T12:49:49.133Z,27.56
2018-06-08T12:50:49.112Z,27.56
2018-06-08T12:51:49.086Z,27.5
2018-06-08T12:52:49.098Z,27.56
2018-06-08T12:53:49.087Z,27.5
2018-06-08T12:54:49.137Z,27.5
2018-06-08T12:55:49.192Z,27.5
2018-06-08T12:56:49.096Z,27.5
2018-06-08T12:57:49.272Z,27.56
2018-06-08T12:58:49.042Z,27.62
2018-06-08T12:59:49.093Z,27.56